Timeline UpdatesTrip UpdatesNews PostsPvt Posts♥♥Travel TipsAdmin PostsConv PostsFollowed PostsChat RequestsBlog PostsPNR Posts

Disclaimer
Search
 
 
Thu Nov 27, 2014 21:26:05 ISTHomeTrainsΣChainsAtlasPNRForumGalleryNewsFAQTripsMembersLoginFeedback
No Recent News for this Train
Other Trains in the News **new
Latest...
...
Sun Aug 10, 2014 (10:19PM)
⇐ Return Journey: Train# 57135

57136/Kazipet-Ajni Passenger (UnReserved)

Time-Table HAS CHANGED.
Sep 04 2014 (4:17AM)
Change Departure Station:
Change Arrival Station:
Post a Train Travel TipPost a Train Travel Tip **new
Post a Comment/Question/Picture/VideoPost a Comment/Question/Picture/Video
Pantry/Catering
✕ NO Pantry Car
✕ NO Catering
RSA - Rake Sharing
Rake/Coach Composition
Loco
AJNI/KZJ WAG 7
News    PNR    Forum    Time-Table    Availability    Fare Chart    Map    Arr/Dep History    Trips    Gallery    ΣChains    X/O    Timeline    
Travel Time: 7h 44m    28 halts    Distance: 272 km    Avg Speed: 35 km/hr
Type: Passenger
Zone: SCR/South Central
Departs @ 21:15 (Avg 7m late)
Platform# 3
SMTWTFS
Kazipet Junction/KZJ 
Arrives @ 04:59 +1 night (Avg 1h 58m late)
Platform# ???
SMTWTFS
Bhandak/BUX 

28 halts. 38 intermediate Stations between Kazipet Junction and Bhandak

Show ALL intermediate Stations  Show Old Time-Table

#TrkCodeStation NameX/OArrivesAvgDepartsAvgHaltPFDay#KmSpeedElevZoneAddress
1/==/KZJKazipet Junction (3)»  -21:15+7310.051292mSCRWarangal Dist., Telangana
2/==/HSPHasanparthi Road (3)  21:29+3621:30+361m1111.979262mSCRWarangal Dist., Telangana
3/==/OPLUppal (2)X  21:39+3921:40+401m2123.779251mSCRKarimnagar Dist., Telangana
4/==/JMKTJammikunta (2)X  21:49+3821:50+401m1135.697236mSCRKarimnagar Dist., Telangana
5/==/BGSFBisugir Sharif (2)X  21:54+5021:55+501m2142.170227mSCRKarimnagar Dist., Telangana
6/==/PTKPPotkapalli (2)X  22:04+5322:05+531m--152.662219mSCRKarimnagar Dist., Telangana
7/==/OEAOdela (2)X  22:09-22:10-1m--156.731231mSCRKarimnagar Dist., Telangana
8/==/KOLRKolanoor (2)  22:19+4522:20+461m--161.3-223mSCRKarimnagar Dist., Telangana
9/==/KYOPKottapally  22:22-22:25-3m--166.557212mSCRKottapalli. Karimnagar Dist., Telangana
10/==/PDPLPeddapalli Junction (2)X  22:34+2522:35+251m1175.152228mSCRKarimnagar Dist., Telangana
11/==/RGPMRaghavapuram (2)  22:44+4922:45+491m--182.842216mSCRKarimnagar Dist., Telangana
12/==/RDMRamagundam (3)  22:59+2523:00+271m1192.631170mSCRKarimnagar Dist. Ph : 08728 - 255237, Telangana
13/==/PPZPeddampet (2)  23:09+5523:10+561m2197.360155mSCRKarimnagar Dist., Telangana
14/==/MCIManchiryal (3)X  23:19+2423:20+261m11106.344159mSCRAdilabad Dist., Telangana
15/==/RVKHRavindrakhani (2)  23:29-23:30-1m21112.925169mSCRAdilabad Dist., Telangana
16/==/MMZMandamari (2)  23:39+5823:40+591m11116.724176mSCRAdilabad Dist., Telangana
17/==/BPABellampalli (3)X  00:04+2800:05+341m12126.269205mSCRTel:.08735 223298, Telangana
18/==/RECHRechni Road (2)X  00:14+1:0300:15+1:031m22136.592250mSCRAdilabad Dist., Telangana
19/==/ASAFAsifabad Road (2)  00:24+1:0600:25+1:161m12150.434210mSCRAdilabad Dist., Telangana
20/==/SKZRSirpur Kaghaznagar (3)  00:50+4800:55+1:165m12164.745181mSCRAdilabad Dist., Telangana
21/==/SRURSirpur Town (2)  01:19+2:0001:20+2:261m22182.676187mSCRAdilabad Dist., Telangana
22/==/MKDIMakudi (2)  01:29+2:1601:30+2:161m22194.086179mSCRMakudi, Maharashtra
23/==/WIRRWirurX  01:39+2:3901:40+2:391m--2206.930182mSCRChandrapur, Maharashtra
24/==/VHGNWihirgaon (2)X  01:59+2:3702:00+2:371m22216.318193mSCRPIN - 442905, Maharashtra
25/==/MAGHManikgarh (2)X  02:29+2:2402:30+2:241m12224.98184mSCRRajura Taluk, Maharashtra
26/==/BPQBalharshah Junction (5)X  03:40+1:0704:10 04:00+1:0330 20m--2234.437188mCRBallarpur. Ph : 07172 - 240341, Maharashtra
27/==/BUPHBabupeth (2)  04:15+1:2604:16+1:501m--2243.738196mCRChandrapur, Maharashtra
28/==/CDChandrapur Maharashtra (3)  04:23+1:2104:24+1:221m--2248.238194mCRChandrapur 442401, Maharashtra
29/==/TAETadaliXO  04:47+1:5604:48+1:591m--2262.952207mCRTadali, Maharashtra
30/==/BUXBhandak (5)•  04:59+1:5805:00+2:031m--2272.565207mCRChandrapur, Maharashtra
31/==/MJRIMajri Junction (3)O  05:09+2:0605:10+2:121m--2282.253198mCRDist. Chandrapur, Maharashtra
32/==/WRRWarora (2)  05:24+1:3205:25+1:321m--2294.670214mCRWarora, Maharashtra
33/==/CKNIChikni Road (2)O  05:34+2:1605:35+2:191m--2305.150211mCRChandrapur, Maharashtra
34/==/HGTHinganghat (3)X  06:09+2:2306:10+2:251m--2333.752228mCRHinganghat, Maharashtra
35/==/WGWagholi (2)XO  06:19+2:2506:20+2:261m--2341.556238mCRWagholi, Maharashtra
36/==/SNNSonegaon (2)XO  06:29+2:2606:30+2:411m--2349.943262mCRWardha, Maharashtra
37/==/BPKBhugaon (3)X  06:39+2:4006:40+2:401m--2356.447267mCRWardha, Maharashtra
38/==/CHJCChitoda  06:49+2:3806:50+2:381m--2363.524265mCRChitoda, Maharashtra
39/==/SEGMSewagram Junction (5)  06:58+1:4107:00+1:432m--2366.869279mCRWardha, Maharashtra
40/==/VADRWarudX  07:03-07:07-4m--2370.267261mCRSewagram, Maharashtra
41/==/SLORSeloo RoadX  07:14+2:4707:15+3:001m--2378.143256mCRMSH3, Maharashtra
42/==/TGPTuljapur (2)O  07:29+2:4207:30+2:591m--2388.120259mCRTuljapur, Maharashtra
43/==/SNISindi (2)X  07:54+3:0707:55+3:081m--2396.177258mCRWardha, Maharashtra
44/==/BOKBorkhedi  08:04+3:1208:05+3:291m--2407.634268mCRWardha, Maharashtra
45/==/BTBRButi Bori (4)  08:19+3:2408:20+3:281m--2415.458269mCRButi Bori, Maharashtra
46/==/GMGGumgaon (2)X  08:29+3:2908:30+3:301m--2424.144302mCRNagpur, Maharashtra
47/==/KRIKhapri (2)  08:39+3:5308:40+3:551m--2430.73312mCRNagpur, Maharashtra
48/==/AJNIAjni (3)  11:25+2:31---2440.0-310mCRNagpur 440003, Maharashtra
Scroll to Top
Scroll to Bottom